createdAt,value
2023-01-30T00:01:54.860Z,77537.66
2023-01-30T00:04:22.069Z,77531.56
2023-01-30T00:06:48.961Z,77529.53
2023-01-30T00:09:16.491Z,77525.47
2023-01-30T00:11:43.753Z,77525.47
2023-01-30T00:14:11.045Z,77509.25
2023-01-30T00:16:38.119Z,77513.31
2023-01-30T00:19:05.438Z,77513.31
2023-01-30T00:21:32.356Z,77505.22
2023-01-30T00:24:00.948Z,77489.00
2023-01-30T00:26:28.061Z,77489.00
2023-01-30T00:28:55.393Z,77480.88
2023-01-30T00:31:22.958Z,77476.81
2023-01-30T00:33:50.764Z,77472.78
2023-01-30T00:36:17.765Z,77468.72
2023-01-30T00:38:44.939Z,77468.72
2023-01-30T00:41:13.737Z,77452.50
2023-01-30T00:44:00.521Z,77454.53
2023-01-30T00:46:51.581Z,77444.38
2023-01-30T00:49:20.531Z,77444.38
2023-01-30T00:51:47.702Z,77436.28
2023-01-30T00:54:14.876Z,77428.16
2023-01-30T00:56:41.776Z,77432.22
2023-01-30T00:59:08.964Z,77436.28
2023-01-30T01:01:35.942Z,77424.09
2023-01-30T01:04:03.478Z,77422.06
2023-01-30T01:06:30.450Z,77420.06
2023-01-30T01:08:57.651Z,77416.00
2023-01-30T01:11:24.929Z,77411.94
2023-01-30T01:13:58.190Z,77403.84
2023-01-30T01:16:26.827Z,77395.72
2023-01-30T01:18:55.099Z,77395.72
2023-01-30T01:21:23.033Z,77383.56
2023-01-30T01:23:58.104Z,77387.59
2023-01-30T01:26:25.767Z,77369.38
2023-01-30T01:28:59.358Z,77371.38
2023-01-30T01:31:26.755Z,77359.22
2023-01-30T01:33:56.104Z,77351.13
2023-01-30T01:36:51.597Z,77349.09
2023-01-30T01:39:10.672Z,77345.03
2023-01-30T01:41:37.723Z,77343.00
2023-01-30T01:44:10.503Z,77334.91
2023-01-30T01:47:00.033Z,77330.84
2023-01-30T01:49:34.196Z,77330.84
2023-01-30T01:52:10.662Z,77326.78
2023-01-30T01:54:53.204Z,77318.66
2023-01-30T01:57:25.415Z,77306.50
2023-01-30T02:00:06.684Z,77306.50
2023-01-30T02:02:43.882Z,77310.56
2023-01-30T02:05:14.139Z,77304.47
2023-01-30T02:07:58.511Z,77310.56
2023-01-30T02:10:53.648Z,77294.34
2023-01-30T02:13:21.225Z,77286.22
2023-01-30T02:15:49.621Z,77292.31
2023-01-30T02:18:17.721Z,77286.22
2023-01-30T02:21:03.719Z,77286.22
2023-01-30T02:23:37.391Z,77286.22
2023-01-30T02:26:04.774Z,77282.19
2023-01-30T02:29:10.695Z,77282.19
2023-01-30T02:31:50.031Z,77278.13
2023-01-30T02:34:42.779Z,77278.13
2023-01-30T02:37:30.966Z,77282.19
2023-01-30T02:40:22.601Z,77274.06
2023-01-30T02:43:24.978Z,77270.00
2023-01-30T02:46:11.290Z,77261.91
2023-01-30T02:48:47.794Z,77253.78
2023-01-30T02:51:24.163Z,77261.91
2023-01-30T02:53:51.657Z,77253.78
2023-01-30T02:56:19.785Z,77245.69
2023-01-30T02:59:02.978Z,77241.63
2023-01-30T03:01:42.541Z,77245.69
2023-01-30T03:04:31.825Z,77233.53
2023-01-30T03:07:12.289Z,77241.63
2023-01-30T03:09:48.740Z,77233.53
2023-01-30T03:12:30.309Z,77231.50
2023-01-30T03:15:05.820Z,77221.34
2023-01-30T03:17:33.161Z,77225.41
2023-01-30T03:20:03.357Z,77221.34
2023-01-30T03:22:30.268Z,77211.22
2023-01-30T03:24:57.804Z,77213.25
2023-01-30T03:27:25.568Z,77199.06
2023-01-30T03:29:53.048Z,77201.06
2023-01-30T03:32:20.546Z,77184.84
2023-01-30T03:34:47.906Z,77197.03
2023-01-30T03:37:14.957Z,77192.97
2023-01-30T03:39:42.178Z,77201.06
2023-01-30T03:42:10.531Z,77205.13
2023-01-30T03:44:38.007Z,77205.13
2023-01-30T03:47:04.980Z,77209.19
2023-01-30T03:49:32.262Z,77213.25
2023-01-30T03:51:59.454Z,77209.19
2023-01-30T03:54:26.960Z,77209.19
2023-01-30T03:56:54.819Z,77215.28
2023-01-30T03:59:22.966Z,77209.19
2023-01-30T04:01:57.947Z,77209.19
2023-01-30T04:04:25.517Z,77205.13
2023-01-30T04:06:52.536Z,77209.19
2023-01-30T04:09:20.891Z,77199.06
2023-01-30T04:11:50.781Z,77188.91
2023-01-30T04:14:19.035Z,77188.91
2023-01-30T04:17:05.862Z,77184.84
2023-01-30T04:19:52.926Z,77176.75
2023-01-30T04:22:19.874Z,77176.75
2023-01-30T04:24:47.727Z,77168.63
2023-01-30T04:27:15.141Z,77164.59
2023-01-30T04:29:58.173Z,77164.59
2023-01-30T04:32:26.638Z,77168.63
2023-01-30T04:34:54.008Z,77160.53
2023-01-30T04:37:20.923Z,77148.38
2023-01-30T04:39:50.154Z,77136.19
2023-01-30T04:42:17.241Z,77144.31
2023-01-30T04:44:59.238Z,77132.16
2023-01-30T04:47:28.909Z,77128.09
2023-01-30T04:49:56.220Z,77111.88
2023-01-30T04:52:23.106Z,77099.72
2023-01-30T04:54:50.281Z,77103.75
2023-01-30T04:57:18.050Z,77101.72
2023-01-30T04:59:45.247Z,77097.69
2023-01-30T05:02:14.515Z,77105.78
2023-01-30T05:04:42.005Z,77107.81
2023-01-30T05:07:09.063Z,77095.66
2023-01-30T05:09:36.183Z,77093.63
2023-01-30T05:12:03.087Z,77091.59
2023-01-30T05:14:30.396Z,77077.41
2023-01-30T05:16:57.309Z,77071.31
2023-01-30T05:19:24.589Z,77059.16
2023-01-30T05:21:51.905Z,77063.22
2023-01-30T05:24:19.096Z,77051.06
2023-01-30T05:26:46.004Z,77047.00
2023-01-30T05:29:13.116Z,77038.88
2023-01-30T05:31:40.268Z,77036.84
2023-01-30T05:34:07.478Z,77030.78
2023-01-30T05:36:34.266Z,77022.66
2023-01-30T05:39:01.427Z,77020.63
2023-01-30T05:41:28.491Z,77022.66
2023-01-30T05:43:55.702Z,77018.63
2023-01-30T05:46:22.732Z,77026.72
2023-01-30T05:48:50.001Z,77022.66
2023-01-30T05:51:23.594Z,77016.59
2023-01-30T05:53:51.188Z,77010.50
2023-01-30T05:56:19.157Z,77010.50
2023-01-30T05:58:56.563Z,77006.44
2023-01-30T06:01:23.820Z,77006.44
2023-01-30T06:03:51.181Z,77004.41
2023-01-30T06:06:19.113Z,77018.63
2023-01-30T06:08:47.161Z,77002.41
2023-01-30T06:11:17.078Z,77002.41
2023-01-30T06:13:44.454Z,76994.28
2023-01-30T06:16:13.550Z,76986.16
2023-01-30T06:18:41.065Z,76986.16
2023-01-30T06:21:09.118Z,76986.16
2023-01-30T06:23:36.410Z,76990.22
2023-01-30T06:26:04.913Z,76974.00
2023-01-30T06:28:33.213Z,76982.13
2023-01-30T06:31:00.114Z,76978.06
2023-01-30T06:33:27.431Z,76974.00
2023-01-30T06:35:54.499Z,76978.06
2023-01-30T06:38:21.824Z,76974.00
2023-01-30T06:40:50.171Z,76957.78
2023-01-30T06:43:17.960Z,76969.94
2023-01-30T06:45:45.020Z,76957.78
2023-01-30T06:48:12.608Z,76949.69
2023-01-30T06:50:39.757Z,76965.91
2023-01-30T06:53:07.877Z,76961.84
2023-01-30T06:55:35.758Z,76957.78
2023-01-30T06:58:07.491Z,76957.78
2023-01-30T07:00:34.733Z,76949.69
2023-01-30T07:03:02.082Z,76949.69
2023-01-30T07:05:29.364Z,76943.59
2023-01-30T07:07:56.597Z,76943.59
2023-01-30T07:10:24.137Z,76941.56
2023-01-30T07:12:51.285Z,76931.44
2023-01-30T07:15:18.516Z,76929.41
2023-01-30T07:17:45.825Z,76929.41
2023-01-30T07:20:12.908Z,76923.31
2023-01-30T07:22:40.322Z,76921.31
2023-01-30T07:25:07.838Z,76929.41
2023-01-30T07:27:35.052Z,76915.22
2023-01-30T07:30:01.946Z,76905.09
2023-01-30T07:32:29.271Z,76909.13
2023-01-30T07:34:56.402Z,76896.97
2023-01-30T07:37:23.645Z,76917.25
2023-01-30T07:39:50.573Z,76909.13
2023-01-30T07:42:17.906Z,76905.09
2023-01-30T07:44:45.627Z,76913.19
2023-01-30T07:47:12.793Z,76905.09
2023-01-30T07:49:39.678Z,76903.06
2023-01-30T07:52:06.793Z,76901.03
2023-01-30T07:54:33.670Z,76909.13
2023-01-30T07:57:01.670Z,76911.16
2023-01-30T07:59:29.130Z,76921.31
2023-01-30T08:01:58.998Z,76925.34
2023-01-30T08:04:26.361Z,76925.34
2023-01-30T08:06:54.021Z,76927.38
2023-01-30T08:09:21.517Z,76925.34
2023-01-30T08:11:49.607Z,76925.34
2023-01-30T08:14:17.465Z,76941.56
2023-01-30T08:16:45.381Z,76933.47
2023-01-30T08:19:13.447Z,76943.59
2023-01-30T08:21:41.171Z,76945.63
2023-01-30T08:24:08.781Z,76949.69
2023-01-30T08:26:36.836Z,76945.63
2023-01-30T08:29:04.487Z,76937.53
2023-01-30T08:31:32.524Z,76933.47
2023-01-30T08:34:00.031Z,76929.41
2023-01-30T08:36:27.939Z,76929.41
2023-01-30T08:38:55.375Z,76935.50
2023-01-30T08:41:23.325Z,76935.50
2023-01-30T08:43:50.612Z,76943.59
2023-01-30T08:46:18.213Z,76949.69
2023-01-30T08:48:50.059Z,76935.50
2023-01-30T08:51:17.910Z,76933.47
2023-01-30T08:53:45.712Z,76933.47
2023-01-30T08:56:13.284Z,76925.34
2023-01-30T08:58:41.390Z,76913.19
2023-01-30T09:01:08.999Z,76915.22
2023-01-30T09:03:36.582Z,76921.31
2023-01-30T09:06:05.399Z,76899.00
2023-01-30T09:08:32.780Z,76909.13
2023-01-30T09:11:02.536Z,76905.09
2023-01-30T09:13:30.963Z,76888.88
2023-01-30T09:15:59.253Z,76901.03
2023-01-30T09:18:26.326Z,76888.88
2023-01-30T09:21:02.731Z,76880.75
2023-01-30T09:23:29.847Z,76872.66
2023-01-30T09:25:57.015Z,76874.66
2023-01-30T09:28:23.929Z,76868.59
2023-01-30T09:30:51.429Z,76856.44
2023-01-30T09:33:20.499Z,76876.69
2023-01-30T09:35:48.716Z,76868.59
2023-01-30T09:38:16.005Z,76864.53
2023-01-30T09:41:32.168Z,76856.44
2023-01-30T09:44:22.767Z,76854.41
2023-01-30T09:46:55.685Z,76852.38
2023-01-30T09:49:41.476Z,76854.41
2023-01-30T09:52:19.736Z,76848.31
2023-01-30T09:54:47.604Z,76844.25
2023-01-30T09:57:25.689Z,76836.16
2023-01-30T10:00:11.786Z,76819.94
2023-01-30T10:02:53.789Z,76811.81
2023-01-30T10:05:23.218Z,76809.81
2023-01-30T10:08:06.231Z,76797.63
2023-01-30T10:11:09.695Z,76795.59
2023-01-30T10:13:53.037Z,76775.34
2023-01-30T10:16:44.932Z,76771.28
2023-01-30T10:19:43.621Z,76775.34
2023-01-30T10:22:41.450Z,76771.28
2023-01-30T10:25:24.720Z,76769.25
2023-01-30T10:28:03.730Z,76763.16
2023-01-30T10:30:31.815Z,76763.16
2023-01-30T10:33:04.038Z,76761.16
2023-01-30T10:35:37.140Z,76738.84
2023-01-30T10:38:32.864Z,76740.88
2023-01-30T10:41:18.959Z,76742.91
2023-01-30T10:43:54.772Z,76728.72
2023-01-30T10:46:56.335Z,76726.69
2023-01-30T10:49:51.642Z,76718.56
2023-01-30T10:52:35.891Z,76712.50
2023-01-30T10:55:38.007Z,76706.41
2023-01-30T10:58:24.224Z,76706.41
2023-01-30T11:01:05.079Z,76706.41
2023-01-30T11:03:32.243Z,76702.34
2023-01-30T11:06:03.007Z,76702.34
2023-01-30T11:08:33.465Z,76694.25
2023-01-30T11:11:01.675Z,76694.25
2023-01-30T11:13:33.752Z,76698.31
2023-01-30T11:16:11.351Z,76684.13
2023-01-30T11:21:43.911Z,76680.06
2023-01-30T11:24:42.023Z,76682.09
2023-01-30T11:27:19.458Z,76667.91
2023-01-30T11:29:47.917Z,76657.75
2023-01-30T11:32:27.302Z,76637.50
2023-01-30T11:35:06.490Z,76617.22
2023-01-30T11:37:36.604Z,76613.16
2023-01-30T11:40:26.159Z,76601.00
2023-01-30T11:43:06.534Z,76584.78
2023-01-30T11:45:40.550Z,76572.63
2023-01-30T11:48:31.518Z,76572.63
2023-01-30T11:51:06.292Z,76568.56
2023-01-30T11:53:33.279Z,76564.50
2023-01-30T11:56:25.645Z,76554.38
2023-01-30T11:58:58.844Z,76544.25
2023-01-30T12:01:32.925Z,76552.34
2023-01-30T12:04:01.367Z,76552.34
2023-01-30T12:06:34.440Z,76560.47
2023-01-30T12:09:01.567Z,76560.47
2023-01-30T12:11:42.152Z,76558.44
2023-01-30T12:14:27.690Z,76556.41
2023-01-30T12:17:04.013Z,76556.41
2023-01-30T12:19:49.194Z,76552.34
2023-01-30T12:22:23.026Z,76550.31
2023-01-30T12:25:01.214Z,76540.19
2023-01-30T12:27:54.284Z,76560.47
2023-01-30T12:30:25.528Z,76548.31
2023-01-30T12:36:12.913Z,76560.47
2023-01-30T12:39:13.227Z,76568.56
2023-01-30T12:41:46.030Z,76560.47
2023-01-30T12:44:27.693Z,76556.41
2023-01-30T12:47:16.630Z,76556.41
2023-01-30T12:49:56.087Z,76544.25
2023-01-30T12:52:49.437Z,76538.16
2023-01-30T12:55:32.488Z,76538.16
2023-01-30T12:58:05.404Z,76538.16
2023-01-30T13:01:10.543Z,76548.31
2023-01-30T13:03:56.291Z,76538.16
2023-01-30T13:06:49.207Z,76540.19
2023-01-30T13:09:34.268Z,76528.03
2023-01-30T13:12:14.633Z,76536.13
2023-01-30T13:15:03.435Z,76528.03
2023-01-30T13:17:55.564Z,76530.06
2023-01-30T13:20:31.802Z,76528.03
2023-01-30T13:23:07.723Z,76528.03
2023-01-30T13:26:28.799Z,76515.88
2023-01-30T13:28:59.235Z,76511.81
2023-01-30T13:31:30.269Z,76507.75
2023-01-30T13:34:07.538Z,76511.81
2023-01-30T13:36:51.968Z,76513.84
2023-01-30T13:39:30.696Z,76511.81
2023-01-30T13:42:01.388Z,76515.88
2023-01-30T13:44:31.477Z,76503.69
2023-01-30T13:47:35.366Z,76495.59
2023-01-30T13:50:21.107Z,76495.59
2023-01-30T13:53:01.903Z,76483.44
2023-01-30T13:55:56.554Z,76485.47
2023-01-30T13:58:45.130Z,76483.44
2023-01-30T14:01:14.159Z,76479.38
2023-01-30T14:03:42.769Z,76479.38
2023-01-30T14:06:13.325Z,76483.44
2023-01-30T14:08:46.367Z,76475.31
2023-01-30T14:11:31.061Z,76479.38
2023-01-30T14:14:25.071Z,76479.38
2023-01-30T14:16:55.036Z,76479.38
2023-01-30T14:19:31.092Z,76479.38
2023-01-30T14:22:02.194Z,76475.31
2023-01-30T14:24:31.455Z,76479.38
2023-01-30T14:26:58.628Z,76483.44
2023-01-30T14:29:38.370Z,76479.38
2023-01-30T14:32:14.760Z,76479.38
2023-01-30T14:34:48.099Z,76473.28
2023-01-30T14:37:41.590Z,76475.31
2023-01-30T14:40:20.869Z,76467.22
2023-01-30T14:43:36.315Z,76471.28
2023-01-30T14:46:16.219Z,76477.34
2023-01-30T14:48:56.933Z,76471.28
2023-01-30T14:51:39.093Z,76483.44
2023-01-30T14:54:12.557Z,76475.31
2023-01-30T14:56:58.583Z,76479.38
2023-01-30T14:59:45.449Z,76471.28
2023-01-30T15:02:12.353Z,76471.28
2023-01-30T15:05:09.705Z,76467.22
2023-01-30T15:07:43.029Z,76467.22
2023-01-30T15:10:13.271Z,76463.16
2023-01-30T15:12:43.202Z,76467.22
2023-01-30T15:15:29.903Z,76471.28
2023-01-30T15:18:07.888Z,76459.09
2023-01-30T15:21:16.042Z,76455.06
2023-01-30T15:23:56.293Z,76471.28
2023-01-30T15:26:50.968Z,76455.06
2023-01-30T15:29:21.158Z,76467.22
2023-01-30T15:31:59.266Z,76479.38
2023-01-30T15:34:31.481Z,76481.41
2023-01-30T15:36:58.624Z,76469.25
2023-01-30T15:39:28.075Z,76475.31
2023-01-30T15:42:05.490Z,76475.31
2023-01-30T15:44:51.348Z,76483.44
2023-01-30T15:47:24.729Z,76473.28
2023-01-30T15:49:57.250Z,76477.34
2023-01-30T15:52:32.976Z,76475.31
2023-01-30T15:55:02.208Z,76479.38
2023-01-30T15:57:34.496Z,76483.44
2023-01-30T16:00:03.180Z,76481.41
2023-01-30T16:02:43.457Z,76467.22
2023-01-30T16:05:25.395Z,76479.38
2023-01-30T16:07:55.223Z,76467.22
2023-01-30T16:10:24.290Z,76481.41
2023-01-30T16:12:56.338Z,76485.47
2023-01-30T16:15:36.129Z,76463.16
2023-01-30T16:18:29.201Z,76471.28
2023-01-30T16:21:09.541Z,76475.31
2023-01-30T16:23:53.604Z,76479.38
2023-01-30T16:26:21.975Z,76451.00
2023-01-30T16:28:53.498Z,76451.00
2023-01-30T16:31:20.991Z,76455.06
2023-01-30T16:33:52.281Z,76448.97
2023-01-30T16:36:19.697Z,76446.94
2023-01-30T16:38:49.481Z,76451.00
2023-01-30T16:41:34.789Z,76446.94
2023-01-30T16:44:12.851Z,76451.00
2023-01-30T16:46:52.390Z,76446.94
2023-01-30T16:49:37.741Z,76446.94
2023-01-30T16:52:19.471Z,76442.91
2023-01-30T16:54:51.610Z,76451.00
2023-01-30T16:57:37.923Z,76459.09
2023-01-30T17:00:19.573Z,76442.91
2023-01-30T17:02:57.602Z,76438.84
2023-01-30T17:05:29.037Z,76436.81
2023-01-30T17:07:56.886Z,76426.69
2023-01-30T17:10:42.199Z,76430.72
2023-01-30T17:13:34.384Z,76428.69
2023-01-30T17:16:19.006Z,76438.84
2023-01-30T17:18:47.926Z,76422.63
2023-01-30T17:21:15.360Z,76418.56
2023-01-30T17:23:50.282Z,76430.72
2023-01-30T17:26:17.852Z,76430.72
2023-01-30T17:28:45.267Z,76426.69
2023-01-30T17:31:14.166Z,76418.56
2023-01-30T17:33:42.358Z,76414.50
2023-01-30T17:36:24.068Z,76424.66
2023-01-30T17:38:59.447Z,76412.47
2023-01-30T17:41:33.570Z,76414.50
2023-01-30T17:44:01.200Z,76422.63
2023-01-30T17:46:45.580Z,76422.63
2023-01-30T17:49:20.609Z,76426.69
2023-01-30T17:51:49.228Z,76426.69
2023-01-30T17:54:17.084Z,76412.47
2023-01-30T17:56:52.117Z,76406.41
2023-01-30T17:59:21.061Z,76406.41
2023-01-30T18:01:50.542Z,76418.56
2023-01-30T18:04:19.569Z,76418.56
2023-01-30T18:06:50.239Z,76414.50
2023-01-30T18:09:23.061Z,76416.53
2023-01-30T18:11:51.142Z,76402.34
2023-01-30T18:14:18.333Z,76414.50
2023-01-30T18:16:45.833Z,76410.47
2023-01-30T18:19:15.968Z,76416.53
2023-01-30T18:21:45.529Z,76414.50
2023-01-30T18:24:13.835Z,76414.50
2023-01-30T18:26:42.100Z,76418.56
2023-01-30T18:29:12.454Z,76418.56
2023-01-30T18:31:40.928Z,76406.41
2023-01-30T18:34:10.269Z,76402.34
2023-01-30T18:36:39.032Z,76410.47
2023-01-30T18:39:06.430Z,76410.47
2023-01-30T18:41:35.380Z,76414.50
2023-01-30T18:44:05.370Z,76422.63
2023-01-30T18:46:33.571Z,76408.44
2023-01-30T18:49:00.887Z,76418.56
2023-01-30T18:51:32.474Z,76422.63
2023-01-30T18:54:00.782Z,76426.69
2023-01-30T18:56:34.018Z,76430.72
2023-01-30T18:59:04.127Z,76422.63
2023-01-30T19:01:35.596Z,76422.63
2023-01-30T19:04:04.394Z,76420.59
2023-01-30T19:06:34.384Z,76430.72
2023-01-30T19:09:01.420Z,76420.59
2023-01-30T19:11:47.659Z,76430.72
2023-01-30T19:14:14.717Z,76438.84
2023-01-30T19:16:42.301Z,76451.00
2023-01-30T19:19:10.124Z,76448.97
2023-01-30T19:21:37.668Z,76463.16
2023-01-30T19:24:07.128Z,76467.22
2023-01-30T19:26:35.014Z,76473.28
2023-01-30T19:29:02.492Z,76475.31
2023-01-30T19:31:29.529Z,76477.34
2023-01-30T19:33:58.844Z,76463.16
2023-01-30T19:36:27.889Z,76455.06
2023-01-30T19:38:58.669Z,76455.06
2023-01-30T19:41:29.277Z,76459.09
2023-01-30T19:43:58.526Z,76446.94
2023-01-30T19:46:26.806Z,76442.91
2023-01-30T19:48:54.170Z,76438.84
2023-01-30T19:51:29.931Z,76446.94
2023-01-30T19:54:08.023Z,76442.91
2023-01-30T19:56:35.135Z,76434.78
2023-01-30T19:59:02.484Z,76446.94
2023-01-30T20:01:33.005Z,76446.94
2023-01-30T20:04:01.878Z,76442.91
2023-01-30T20:06:31.834Z,76434.78
2023-01-30T20:09:08.192Z,76436.81
2023-01-30T20:11:36.960Z,76442.91
2023-01-30T20:14:07.237Z,76446.94
2023-01-30T20:16:35.787Z,76442.91
2023-01-30T20:19:20.960Z,76446.94
2023-01-30T20:21:47.932Z,76438.84
2023-01-30T20:24:16.144Z,76430.72
2023-01-30T20:26:46.534Z,76442.91
2023-01-30T20:29:17.550Z,76453.03
2023-01-30T20:31:45.260Z,76446.94
2023-01-30T20:34:14.174Z,76440.88
2023-01-30T20:36:41.371Z,76451.00
2023-01-30T20:39:10.414Z,76446.94
2023-01-30T20:41:38.716Z,76446.94
2023-01-30T20:44:08.314Z,76459.09
2023-01-30T20:46:40.971Z,76459.09
2023-01-30T20:49:16.299Z,76446.94
2023-01-30T20:51:43.832Z,76455.06
2023-01-30T20:54:12.795Z,76446.94
2023-01-30T20:56:45.553Z,76455.06
2023-01-30T20:59:15.114Z,76463.16
2023-01-30T21:01:42.638Z,76455.06
2023-01-30T21:04:16.252Z,76465.19
2023-01-30T21:06:46.165Z,76463.16
2023-01-30T21:09:20.250Z,76483.44
2023-01-30T21:11:49.017Z,76507.75
2023-01-30T21:14:17.855Z,76497.63
2023-01-30T21:16:45.675Z,76491.53
2023-01-30T21:19:16.298Z,76507.75
2023-01-30T21:21:50.667Z,76511.81
2023-01-30T21:24:39.272Z,76495.59
2023-01-30T21:27:07.007Z,76515.88
2023-01-30T21:29:33.928Z,76519.91
2023-01-30T21:32:01.284Z,76523.97
2023-01-30T21:34:28.297Z,76513.84
2023-01-30T21:37:14.231Z,76528.03
2023-01-30T21:39:59.812Z,76528.03
2023-01-30T21:42:45.652Z,76528.03
2023-01-30T21:45:12.713Z,76528.03
2023-01-30T21:47:40.008Z,76550.31
2023-01-30T21:50:07.884Z,76538.16
2023-01-30T21:52:35.612Z,76568.56
2023-01-30T21:55:02.915Z,76554.38
2023-01-30T21:57:30.368Z,76560.47
2023-01-30T21:59:57.265Z,76564.50
2023-01-30T22:02:24.408Z,76566.53
2023-01-30T22:04:51.797Z,76576.69
2023-01-30T22:07:19.225Z,76560.47
2023-01-30T22:09:46.445Z,76554.38
2023-01-30T22:12:13.799Z,76564.50
2023-01-30T22:14:40.985Z,76574.66
2023-01-30T22:17:08.260Z,76572.63
2023-01-30T22:19:35.856Z,76568.56
2023-01-30T22:22:03.944Z,76564.50
2023-01-30T22:24:31.268Z,76568.56
2023-01-30T22:26:59.038Z,76552.34
2023-01-30T22:29:26.193Z,76562.50
2023-01-30T22:31:53.408Z,76552.34
2023-01-30T22:34:21.408Z,76562.50
2023-01-30T22:36:48.756Z,76568.56
2023-01-30T22:39:16.017Z,76580.72
2023-01-30T22:41:43.451Z,76584.78
2023-01-30T22:44:10.793Z,76564.50
2023-01-30T22:46:40.101Z,76576.69
2023-01-30T22:49:09.269Z,76580.72
2023-01-30T22:51:39.756Z,76576.69
2023-01-30T22:54:10.509Z,76584.78
2023-01-30T22:56:41.020Z,76582.75
2023-01-30T22:59:09.209Z,76576.69
2023-01-30T23:01:41.909Z,76570.59
2023-01-30T23:04:17.513Z,76580.72
2023-01-30T23:06:46.096Z,76568.56
2023-01-30T23:09:19.171Z,76564.50
2023-01-30T23:12:10.820Z,76560.47
2023-01-30T23:14:39.243Z,76576.69
2023-01-30T23:17:25.852Z,76572.63
2023-01-30T23:19:57.315Z,76576.69
2023-01-30T23:22:24.893Z,76572.63
2023-01-30T23:24:52.223Z,76564.50
2023-01-30T23:27:20.812Z,76572.63
2023-01-30T23:29:48.279Z,76568.56
2023-01-30T23:32:19.093Z,76572.63
2023-01-30T23:34:47.495Z,76572.63
2023-01-30T23:37:15.199Z,76576.69
2023-01-30T23:39:42.070Z,76562.50
2023-01-30T23:42:09.325Z,76568.56
2023-01-30T23:44:36.462Z,76556.41
2023-01-30T23:47:03.835Z,76548.31
2023-01-30T23:49:30.693Z,76552.34
2023-01-30T23:51:57.995Z,76552.34
2023-01-30T23:54:25.144Z,76568.56
2023-01-30T23:56:54.209Z,76568.56
2023-01-30T23:59:21.132Z,76552.34
